Terminal Aerodrome Forecast
Issued by NWS Wichita, KS

Home | Current Version | Previous Version | Graphics & Text | Print | Product List | Glossary On
Versions: 1 2 3 4 5 6 7 8 9 10 11 12 13
000
FTUS43 KICT 211731
TAFICT
TAF
KICT 211731Z 2118/2218 13007KT P6SM SCT250
     FM212200 12006KT P6SM BKN080
     FM220300 06007KT P6SM VCSH OVC035
     FM220600 02009KT P6SM VCSH OVC025
     FM220900 36012KT P6SM VCSH OVC015
     FM221200 35014G23KT P6SM BKN040=

USA.gov is the U.S. government's official web portal to all federal, state and local government web resources and services.